sensor_id;sensor_type;location;lat;lon;timestamp;pressure;altitude;pressure_sealevel;temperature;humidity
65760;BME280;52496;51.082;5.066;2023-02-15T00:01:09;102800.75;;;0.10;100.00
65760;BME280;52496;51.082;5.066;2023-02-15T00:03:41;102797.41;;;0.06;100.00
65760;BME280;52496;51.082;5.066;2023-02-15T00:06:11;102789.66;;;0.03;100.00
65760;BME280;52496;51.082;5.066;2023-02-15T00:08:42;102784.44;;;0.02;100.00
65760;BME280;52496;51.082;5.066;2023-02-15T00:11:15;102789.78;;;0.00;100.00
65760;BME280;52496;51.082;5.066;2023-02-15T00:13:46;102793.31;;;-0.01;100.00
65760;BME280;52496;51.082;5.066;2023-02-15T00:16:17;102781.22;;;-0.05;100.00
65760;BME280;52496;51.082;5.066;2023-02-15T00:18:47;102775.13;;;-0.06;100.00
65760;BME280;52496;51.082;5.066;2023-02-15T00:21:18;102777.75;;;-0.06;100.00
65760;BME280;52496;51.082;5.066;2023-02-15T00:23:48;102774.31;;;-0.08;100.00
65760;BME280;52496;51.082;5.066;2023-02-15T00:26:19;102782.34;;;-0.11;100.00
65760;BME280;52496;51.082;5.066;2023-02-15T00:28:49;102773.66;;;-0.13;100.00
65760;BME280;52496;51.082;5.066;2023-02-15T00:31:20;102771.03;;;-0.13;100.00
65760;BME280;52496;51.082;5.066;2023-02-15T00:33:51;102775.25;;;-0.09;100.00
65760;BME280;52496;51.082;5.066;2023-02-15T00:36:21;102773.41;;;-0.07;100.00
65760;BME280;52496;51.082;5.066;2023-02-15T00:38:52;102770.56;;;-0.02;100.00
65760;BME280;52496;51.082;5.066;2023-02-15T00:41:22;102769.44;;;0.04;100.00
65760;BME280;52496;51.082;5.066;2023-02-15T00:43:53;102762.19;;;0.09;100.00
65760;BME280;52496;51.082;5.066;2023-02-15T00:46:24;102762.84;;;0.14;100.00
65760;BME280;52496;51.082;5.066;2023-02-15T00:48:54;102768.75;;;0.19;100.00
65760;BME280;52496;51.082;5.066;2023-02-15T00:51:25;102763.06;;;0.28;100.00
65760;BME280;52496;51.082;5.066;2023-02-15T00:53:57;102760.88;;;0.38;100.00
65760;BME280;52496;51.082;5.066;2023-02-15T00:56:28;102760.44;;;0.47;100.00
65760;BME280;52496;51.082;5.066;2023-02-15T00:58:59;102764.63;;;0.51;100.00
65760;BME280;52496;51.082;5.066;2023-02-15T01:01:29;102765.41;;;0.53;100.00
65760;BME280;52496;51.082;5.066;2023-02-15T01:04:01;102761.94;;;0.53;100.00
65760;BME280;52496;51.082;5.066;2023-02-15T01:06:31;102757.66;;;0.50;100.00
65760;BME280;52496;51.082;5.066;2023-02-15T01:09:02;102754.22;;;0.48;100.00
65760;BME280;52496;51.082;5.066;2023-02-15T01:11:33;102747.41;;;0.44;100.00
65760;BME280;52496;51.082;5.066;2023-02-15T01:14:03;102743.00;;;0.44;100.00
65760;BME280;52496;51.082;5.066;2023-02-15T01:16:35;102747.28;;;0.47;100.00
65760;BME280;52496;51.082;5.066;2023-02-15T01:19:06;102740.88;;;0.53;100.00
65760;BME280;52496;51.082;5.066;2023-02-15T01:21:36;102745.84;;;0.59;100.00
65760;BME280;52496;51.082;5.066;2023-02-15T01:24:12;102745.56;;;0.65;100.00
65760;BME280;52496;51.082;5.066;2023-02-15T01:26:43;102734.63;;;0.73;100.00
65760;BME280;52496;51.082;5.066;2023-02-15T01:29:13;102730.84;;;0.78;100.00
65760;BME280;52496;51.082;5.066;2023-02-15T01:31:44;102730.72;;;0.81;100.00
65760;BME280;52496;51.082;5.066;2023-02-15T01:34:14;102722.91;;;0.80;100.00
65760;BME280;52496;51.082;5.066;2023-02-15T01:36:46;102728.47;;;0.74;100.00
65760;BME280;52496;51.082;5.066;2023-02-15T01:39:17;102727.19;;;0.63;100.00
65760;BME280;52496;51.082;5.066;2023-02-15T01:41:47;102718.03;;;0.53;100.00
65760;BME280;52496;51.082;5.066;2023-02-15T01:47:42;102713.53;;;0.36;100.00
65760;BME280;52496;51.082;5.066;2023-02-15T01:50:17;102712.00;;;0.32;100.00
65760;BME280;52496;51.082;5.066;2023-02-15T01:52:55;102706.72;;;0.32;100.00
65760;BME280;52496;51.082;5.066;2023-02-15T01:55:32;102700.38;;;0.36;100.00
65760;BME280;52496;51.082;5.066;2023-02-15T01:58:10;102701.88;;;0.42;100.00
65760;BME280;52496;51.082;5.066;2023-02-15T02:00:41;102706.50;;;0.56;100.00
65760;BME280;52496;51.082;5.066;2023-02-15T02:03:12;102700.00;;;0.63;100.00
65760;BME280;52496;51.082;5.066;2023-02-15T02:05:43;102709.53;;;0.65;100.00
65760;BME280;52496;51.082;5.066;2023-02-15T02:08:20;102704.31;;;0.64;100.00
65760;BME280;52496;51.082;5.066;2023-02-15T02:10:50;102705.56;;;0.57;100.00
65760;BME280;52496;51.082;5.066;2023-02-15T02:13:21;102702.44;;;0.49;100.00
65760;BME280;52496;51.082;5.066;2023-02-15T02:16:01;102705.00;;;0.50;100.00
65760;BME280;52496;51.082;5.066;2023-02-15T02:36:06;102679.28;;;0.19;100.00
65760;BME280;52496;51.082;5.066;2023-02-15T02:41:20;102674.22;;;0.14;100.00
65760;BME280;52496;51.082;5.066;2023-02-15T02:46:31;102666.56;;;0.10;100.00
65760;BME280;52496;51.082;5.066;2023-02-15T02:49:03;102667.63;;;0.06;100.00
65760;BME280;52496;51.082;5.066;2023-02-15T02:51:33;102662.63;;;-0.01;100.00
65760;BME280;52496;51.082;5.066;2023-02-15T02:54:05;102666.50;;;-0.08;100.00
65760;BME280;52496;51.082;5.066;2023-02-15T02:56:41;102677.16;;;-0.11;100.00
65760;BME280;52496;51.082;5.066;2023-02-15T02:59:32;102663.22;;;-0.13;100.00
65760;BME280;52496;51.082;5.066;2023-02-15T03:04:46;102652.22;;;-0.21;100.00
65760;BME280;52496;51.082;5.066;2023-02-15T03:07:20;102651.56;;;-0.26;100.00
65760;BME280;52496;51.082;5.066;2023-02-15T03:09:53;102650.13;;;-0.33;100.00
65760;BME280;52496;51.082;5.066;2023-02-15T03:12:32;102650.41;;;-0.39;100.00
65760;BME280;52496;51.082;5.066;2023-02-15T03:15:28;102645.44;;;-0.45;100.00
65760;BME280;52496;51.082;5.066;2023-02-15T03:18:23;102648.25;;;-0.50;100.00
65760;BME280;52496;51.082;5.066;2023-02-15T03:20:55;102635.19;;;-0.52;100.00
65760;BME280;52496;51.082;5.066;2023-02-15T03:23:27;102626.50;;;-0.54;100.00
65760;BME280;52496;51.082;5.066;2023-02-15T03:26:05;102627.59;;;-0.58;100.00
65760;BME280;52496;51.082;5.066;2023-02-15T03:28:43;102628.63;;;-0.62;100.00
65760;BME280;52496;51.082;5.066;2023-02-15T03:31:16;102626.06;;;-0.63;100.00
65760;BME280;52496;51.082;5.066;2023-02-15T03:33:53;102620.53;;;-0.57;100.00
65760;BME280;52496;51.082;5.066;2023-02-15T03:39:45;102612.44;;;-0.53;100.00
65760;BME280;52496;51.082;5.066;2023-02-15T03:42:26;102617.56;;;-0.50;100.00
65760;BME280;52496;51.082;5.066;2023-02-15T03:45:03;102616.66;;;-0.49;100.00
65760;BME280;52496;51.082;5.066;2023-02-15T03:47:43;102621.78;;;-0.45;100.00
65760;BME280;52496;51.082;5.066;2023-02-15T03:50:20;102620.97;;;-0.48;100.00
65760;BME280;52496;51.082;5.066;2023-02-15T03:53:13;102614.31;;;-0.55;100.00
65760;BME280;52496;51.082;5.066;2023-02-15T03:55:49;102617.97;;;-0.59;100.00
65760;BME280;52496;51.082;5.066;2023-02-15T03:58:20;102615.63;;;-0.65;100.00
65760;BME280;52496;51.082;5.066;2023-02-15T04:04:19;102618.91;;;-0.80;100.00
65760;BME280;52496;51.082;5.066;2023-02-15T04:06:50;102613.81;;;-0.83;100.00
65760;BME280;52496;51.082;5.066;2023-02-15T04:09:21;102609.53;;;-0.86;100.00
65760;BME280;52496;51.082;5.066;2023-02-15T04:12:10;102614.88;;;-0.87;100.00
65760;BME280;52496;51.082;5.066;2023-02-15T04:14:41;102611.25;;;-0.85;100.00
65760;BME280;52496;51.082;5.066;2023-02-15T04:17:30;102613.09;;;-0.87;100.00
65760;BME280;52496;51.082;5.066;2023-02-15T04:20:01;102610.38;;;-0.85;100.00
65760;BME280;52496;51.082;5.066;2023-02-15T04:22:50;102603.44;;;-0.86;100.00
65760;BME280;52496;51.082;5.066;2023-02-15T04:25:39;102606.06;;;-0.86;100.00
65760;BME280;52496;51.082;5.066;2023-02-15T04:28:10;102600.00;;;-0.88;100.00
65760;BME280;52496;51.082;5.066;2023-02-15T04:30:41;102600.75;;;-0.85;100.00
65760;BME280;52496;51.082;5.066;2023-02-15T04:33:11;102605.59;;;-0.76;100.00
65760;BME280;52496;51.082;5.066;2023-02-15T04:35:43;102604.31;;;-0.67;100.00
65760;BME280;52496;51.082;5.066;2023-02-15T04:38:15;102598.81;;;-0.61;100.00
65760;BME280;52496;51.082;5.066;2023-02-15T04:40:50;102607.47;;;-0.59;100.00
65760;BME280;52496;51.082;5.066;2023-02-15T04:43:22;102598.69;;;-0.58;100.00
65760;BME280;52496;51.082;5.066;2023-02-15T04:45:52;102601.22;;;-0.56;100.00
65760;BME280;52496;51.082;5.066;2023-02-15T04:48:23;102601.06;;;-0.53;100.00
65760;BME280;52496;51.082;5.066;2023-02-15T04:50:54;102593.00;;;-0.49;100.00
65760;BME280;52496;51.082;5.066;2023-02-15T04:53:24;102602.34;;;-0.43;100.00
65760;BME280;52496;51.082;5.066;2023-02-15T04:55:55;102601.38;;;-0.40;100.00
65760;BME280;52496;51.082;5.066;2023-02-15T04:58:25;102591.94;;;-0.44;100.00
65760;BME280;52496;51.082;5.066;2023-02-15T05:00:56;102601.72;;;-0.48;100.00
65760;BME280;52496;51.082;5.066;2023-02-15T05:03:26;102603.00;;;-0.57;100.00
65760;BME280;52496;51.082;5.066;2023-02-15T05:05:57;102596.50;;;-0.68;100.00
65760;BME280;52496;51.082;5.066;2023-02-15T05:08:28;102600.06;;;-0.70;100.00
65760;BME280;52496;51.082;5.066;2023-02-15T05:10:58;102599.19;;;-0.70;100.00
65760;BME280;52496;51.082;5.066;2023-02-15T05:13:29;102592.06;;;-0.66;100.00
65760;BME280;52496;51.082;5.066;2023-02-15T05:15:59;102585.03;;;-0.66;100.00
65760;BME280;52496;51.082;5.066;2023-02-15T05:18:30;102579.75;;;-0.66;100.00
65760;BME280;52496;51.082;5.066;2023-02-15T05:21:01;102574.69;;;-0.71;100.00
65760;BME280;52496;51.082;5.066;2023-02-15T05:23:31;102582.94;;;-0.78;100.00
65760;BME280;52496;51.082;5.066;2023-02-15T05:26:02;102574.53;;;-0.86;100.00
65760;BME280;52496;51.082;5.066;2023-02-15T05:28:51;102575.75;;;-0.94;100.00
65760;BME280;52496;51.082;5.066;2023-02-15T05:31:22;102579.41;;;-0.98;100.00
65760;BME280;52496;51.082;5.066;2023-02-15T05:33:53;102579.47;;;-0.99;100.00
65760;BME280;52496;51.082;5.066;2023-02-15T05:36:23;102572.59;;;-1.02;100.00
65760;BME280;52496;51.082;5.066;2023-02-15T05:38:54;102577.69;;;-0.99;100.00
65760;BME280;52496;51.082;5.066;2023-02-15T05:41:25;102575.03;;;-0.97;100.00
65760;BME280;52496;51.082;5.066;2023-02-15T05:43:56;102567.84;;;-0.94;100.00
65760;BME280;52496;51.082;5.066;2023-02-15T05:46:27;102574.09;;;-0.96;100.00
65760;BME280;52496;51.082;5.066;2023-02-15T05:48:57;102576.13;;;-1.03;100.00
65760;BME280;52496;51.082;5.066;2023-02-15T05:51:28;102577.25;;;-1.08;100.00
65760;BME280;52496;51.082;5.066;2023-02-15T05:53:58;102579.94;;;-1.10;100.00
65760;BME280;52496;51.082;5.066;2023-02-15T05:56:29;102578.09;;;-1.08;100.00
65760;BME280;52496;51.082;5.066;2023-02-15T05:58:59;102578.09;;;-1.08;100.00
65760;BME280;52496;51.082;5.066;2023-02-15T06:01:30;102577.25;;;-1.08;100.00
65760;BME280;52496;51.082;5.066;2023-02-15T06:04:01;102571.16;;;-1.09;100.00
65760;BME280;52496;51.082;5.066;2023-02-15T06:06:31;102570.22;;;-1.08;100.00
65760;BME280;52496;51.082;5.066;2023-02-15T06:09:02;102575.47;;;-1.08;100.00
65760;BME280;52496;51.082;5.066;2023-02-15T06:11:33;102574.53;;;-1.07;100.00
65760;BME280;52496;51.082;5.066;2023-02-15T06:14:03;102580.47;;;-1.02;100.00
65760;BME280;52496;51.082;5.066;2023-02-15T06:16:34;102582.94;;;-0.99;100.00
65760;BME280;52496;51.082;5.066;2023-02-15T06:19:05;102574.13;;;-0.98;100.00
65760;BME280;52496;51.082;5.066;2023-02-15T06:21:39;102577.44;;;-0.93;100.00
65760;BME280;52496;51.082;5.066;2023-02-15T06:24:09;102579.13;;;-0.92;100.00
65760;BME280;52496;51.082;5.066;2023-02-15T06:26:40;102575.47;;;-0.87;100.00
65760;BME280;52496;51.082;5.066;2023-02-15T06:29:11;102580.44;;;-0.81;100.00
65760;BME280;52496;51.082;5.066;2023-02-15T06:31:42;102577.81;;;-0.81;100.00
65760;BME280;52496;51.082;5.066;2023-02-15T06:34:12;102571.91;;;-0.86;100.00
65760;BME280;52496;51.082;5.066;2023-02-15T06:36:43;102576.59;;;-0.93;100.00
65760;BME280;52496;51.082;5.066;2023-02-15T06:39:14;102575.16;;;-1.00;100.00
65760;BME280;52496;51.082;5.066;2023-02-15T06:41:44;102567.59;;;-1.08;100.00
65760;BME280;52496;51.082;5.066;2023-02-15T06:44:15;102563.47;;;-1.13;100.00
65760;BME280;52496;51.082;5.066;2023-02-15T06:46:45;102577.44;;;-1.13;100.00
65760;BME280;52496;51.082;5.066;2023-02-15T06:49:16;102579.94;;;-1.10;100.00
65760;BME280;52496;51.082;5.066;2023-02-15T06:51:47;102579.78;;;-1.07;100.00
65760;BME280;52496;51.082;5.066;2023-02-15T06:54:17;102574.41;;;-1.04;100.00
65760;BME280;52496;51.082;5.066;2023-02-15T06:56:48;102556.91;;;-1.03;100.00
65760;BME280;52496;51.082;5.066;2023-02-15T06:59:19;102560.38;;;-1.03;100.00
65760;BME280;52496;51.082;5.066;2023-02-15T07:01:50;102561.22;;;-1.02;100.00
65760;BME280;52496;51.082;5.066;2023-02-15T07:04:20;102562.03;;;-1.00;100.00
65760;BME280;52496;51.082;5.066;2023-02-15T07:06:51;102555.84;;;-0.99;100.00
65760;BME280;52496;51.082;5.066;2023-02-15T07:09:22;102555.84;;;-0.99;100.00
65760;BME280;52496;51.082;5.066;2023-02-15T07:11:53;102548.69;;;-0.96;100.00
65760;BME280;52496;51.082;5.066;2023-02-15T07:14:42;102556.94;;;-0.84;100.00
65760;BME280;52496;51.082;5.066;2023-02-15T07:17:12;102556.38;;;-0.72;100.00
65760;BME280;52496;51.082;5.066;2023-02-15T07:19:43;102549.66;;;-0.59;100.00
65760;BME280;52496;51.082;5.066;2023-02-15T07:22:14;102554.63;;;-0.53;100.00
65760;BME280;52496;51.082;5.066;2023-02-15T07:24:44;102559.69;;;-0.48;100.00
65760;BME280;52496;51.082;5.066;2023-02-15T07:27:15;102562.31;;;-0.48;100.00
65760;BME280;52496;51.082;5.066;2023-02-15T07:29:45;102562.38;;;-0.50;100.00
65760;BME280;52496;51.082;5.066;2023-02-15T07:32:16;102556.06;;;-0.45;100.00
65760;BME280;52496;51.082;5.066;2023-02-15T07:34:46;102559.53;;;-0.45;100.00
65760;BME280;52496;51.082;5.066;2023-02-15T07:37:17;102557.63;;;-0.41;100.00
65760;BME280;52496;51.082;5.066;2023-02-15T07:39:48;102560.91;;;-0.36;100.00
65760;BME280;52496;51.082;5.066;2023-02-15T07:42:18;102555.34;;;-0.30;100.00
65760;BME280;52496;51.082;5.066;2023-02-15T07:44:51;102556.75;;;-0.23;100.00
65760;BME280;52496;51.082;5.066;2023-02-15T07:47:23;102561.56;;;-0.14;100.00
65760;BME280;52496;51.082;5.066;2023-02-15T07:49:53;102554.25;;;-0.07;100.00
65760;BME280;52496;51.082;5.066;2023-02-15T07:52:30;102559.16;;;0.01;100.00
65760;BME280;52496;51.082;5.066;2023-02-15T07:55:00;102548.34;;;0.07;100.00
65760;BME280;52496;51.082;5.066;2023-02-15T07:57:31;102553.16;;;0.16;100.00
65760;BME280;52496;51.082;5.066;2023-02-15T08:00:02;102554.31;;;0.28;100.00
65760;BME280;52496;51.082;5.066;2023-02-15T08:02:33;102550.22;;;0.39;100.00
65760;BME280;52496;51.082;5.066;2023-02-15T08:05:07;102554.78;;;0.53;100.00
65760;BME280;52496;51.082;5.066;2023-02-15T08:07:38;102558.59;;;0.65;100.00
65760;BME280;52496;51.082;5.066;2023-02-15T08:10:08;102553.66;;;0.76;100.00
65760;BME280;52496;51.082;5.066;2023-02-15T08:12:39;102558.28;;;0.88;100.00
65760;BME280;52496;51.082;5.066;2023-02-15T08:15:09;102551.50;;;1.00;100.00
65760;BME280;52496;51.082;5.066;2023-02-15T08:17:40;102555.25;;;1.12;100.00
65760;BME280;52496;51.082;5.066;2023-02-15T08:20:10;102553.78;;;1.24;100.00
65760;BME280;52496;51.082;5.066;2023-02-15T08:22:41;102551.31;;;1.36;100.00
65760;BME280;52496;51.082;5.066;2023-02-15T08:25:11;102541.91;;;1.48;100.00
65760;BME280;52496;51.082;5.066;2023-02-15T08:27:42;102538.59;;;1.60;100.00
65760;BME280;52496;51.082;5.066;2023-02-15T08:30:13;102540.47;;;1.74;100.00
65760;BME280;52496;51.082;5.066;2023-02-15T08:32:44;102539.63;;;1.90;100.00
65760;BME280;52496;51.082;5.066;2023-02-15T08:35:15;102534.44;;;2.04;100.00
65760;BME280;52496;51.082;5.066;2023-02-15T08:37:45;102534.38;;;2.20;100.00
65760;BME280;52496;51.082;5.066;2023-02-15T08:40:17;102526.41;;;2.36;100.00
65760;BME280;52496;51.082;5.066;2023-02-15T08:42:47;102533.25;;;2.54;100.00
65760;BME280;52496;51.082;5.066;2023-02-15T08:45:18;102526.22;;;2.69;100.00
65760;BME280;52496;51.082;5.066;2023-02-15T08:47:49;102521.22;;;2.79;100.00
65760;BME280;52496;51.082;5.066;2023-02-15T08:50:19;102528.81;;;2.99;100.00
65760;BME280;52496;51.082;5.066;2023-02-15T08:52:50;102524.38;;;3.14;100.00
65760;BME280;52496;51.082;5.066;2023-02-15T08:55:21;102523.13;;;3.34;100.00
65760;BME280;52496;51.082;5.066;2023-02-15T08:57:51;102516.13;;;3.47;100.00
65760;BME280;52496;51.082;5.066;2023-02-15T09:00:22;102517.81;;;3.62;100.00
65760;BME280;52496;51.082;5.066;2023-02-15T09:02:53;102518.31;;;3.82;100.00
65760;BME280;52496;51.082;5.066;2023-02-15T09:05:23;102519.00;;;3.98;100.00
65760;BME280;52496;51.082;5.066;2023-02-15T09:07:54;102515.44;;;4.12;100.00
65760;BME280;52496;51.082;5.066;2023-02-15T09:10:25;102515.28;;;4.28;100.00
65760;BME280;52496;51.082;5.066;2023-02-15T09:12:55;102516.69;;;4.46;100.00
65760;BME280;52496;51.082;5.066;2023-02-15T09:15:26;102518.94;;;4.65;100.00
65760;BME280;52496;51.082;5.066;2023-02-15T09:17:57;102506.22;;;4.83;100.00
65760;BME280;52496;51.082;5.066;2023-02-15T09:20:34;102511.97;;;5.02;100.00
65760;BME280;52496;51.082;5.066;2023-02-15T09:23:05;102518.50;;;5.22;100.00
65760;BME280;52496;51.082;5.066;2023-02-15T09:25:35;102516.56;;;5.37;100.00
65760;BME280;52496;51.082;5.066;2023-02-15T09:28:06;102515.69;;;5.49;100.00
65760;BME280;52496;51.082;5.066;2023-02-15T09:30:37;102516.19;;;5.67;100.00
65760;BME280;52496;51.082;5.066;2023-02-15T09:33:08;102518.31;;;5.86;100.00
65760;BME280;52496;51.082;5.066;2023-02-15T09:35:38;102519.78;;;6.03;100.00
65760;BME280;52496;51.082;5.066;2023-02-15T09:38:09;102517.56;;;6.21;100.00
65760;BME280;52496;51.082;5.066;2023-02-15T09:40:52;102514.38;;;6.40;100.00
65760;BME280;52496;51.082;5.066;2023-02-15T09:43:38;102516.47;;;6.59;100.00
65760;BME280;52496;51.082;5.066;2023-02-15T09:46:16;102513.97;;;6.80;100.00
65760;BME280;52496;51.082;5.066;2023-02-15T09:48:58;102518.72;;;6.99;100.00
65760;BME280;52496;51.082;5.066;2023-02-15T09:52:20;102519.81;;;7.19;100.00
65760;BME280;52496;51.082;5.066;2023-02-15T10:03:53;102529.78;;;7.82;100.00
65760;BME280;52496;51.082;5.066;2023-02-15T10:06:38;102526.81;;;7.97;100.00
65760;BME280;52496;51.082;5.066;2023-02-15T10:12:14;102534.16;;;8.37;100.00
65760;BME280;52496;51.082;5.066;2023-02-15T10:14:54;102532.25;;;8.60;100.00
65760;BME280;52496;51.082;5.066;2023-02-15T10:20:55;102534.75;;;9.03;100.00
65760;BME280;52496;51.082;5.066;2023-02-15T10:26:48;102532.25;;;9.42;96.14
65760;BME280;52496;51.082;5.066;2023-02-15T10:29:36;102536.25;;;9.57;91.51
65760;BME280;52496;51.082;5.066;2023-02-15T10:34:51;102539.38;;;9.82;89.98
65760;BME280;52496;51.082;5.066;2023-02-15T10:37:32;102533.38;;;9.90;87.13
65760;BME280;52496;51.082;5.066;2023-02-15T10:40:17;102530.00;;;9.97;86.95
65760;BME280;52496;51.082;5.066;2023-02-15T11:07:52;102509.38;;;11.32;81.51
65760;BME280;52496;51.082;5.066;2023-02-15T11:10:56;102505.44;;;11.54;80.42
65760;BME280;52496;51.082;5.066;2023-02-15T11:13:32;102515.47;;;11.70;80.72
65760;BME280;52496;51.082;5.066;2023-02-15T11:16:08;102503.38;;;11.93;80.65
65760;BME280;52496;51.082;5.066;2023-02-15T11:18:48;102497.00;;;12.12;79.58
65760;BME280;52496;51.082;5.066;2023-02-15T11:21:33;102495.84;;;12.33;77.56
65760;BME280;52496;51.082;5.066;2023-02-15T11:24:16;102490.44;;;12.51;77.48
65760;BME280;52496;51.082;5.066;2023-02-15T11:27:00;102484.84;;;12.70;76.63
65760;BME280;52496;51.082;5.066;2023-02-15T11:29:39;102479.75;;;12.93;75.96
65760;BME280;52496;51.082;5.066;2023-02-15T11:40:31;102491.44;;;13.44;68.51
65760;BME280;52496;51.082;5.066;2023-02-15T11:43:34;102486.25;;;13.51;68.50
65760;BME280;52496;51.082;5.066;2023-02-15T11:46:03;102472.00;;;13.59;68.34
65760;BME280;52496;51.082;5.066;2023-02-15T11:48:33;102468.50;;;13.74;69.23
65760;BME280;52496;51.082;5.066;2023-02-15T11:51:04;102459.59;;;13.90;67.75
65760;BME280;52496;51.082;5.066;2023-02-15T11:53:37;102464.31;;;14.05;67.17
65760;BME280;52496;51.082;5.066;2023-02-15T11:56:25;102476.63;;;14.15;65.71
65760;BME280;52496;51.082;5.066;2023-02-15T11:59:03;102463.81;;;14.17;64.96
65760;BME280;52496;51.082;5.066;2023-02-15T12:01:45;102464.16;;;14.14;66.69
65760;BME280;52496;51.082;5.066;2023-02-15T12:04:36;102446.00;;;14.16;64.75
65760;BME280;52496;51.082;5.066;2023-02-15T12:07:23;102445.16;;;14.16;67.38
65760;BME280;52496;51.082;5.066;2023-02-15T12:10:03;102448.50;;;14.18;63.67
65760;BME280;52496;51.082;5.066;2023-02-15T12:12:37;102439.28;;;14.12;65.12
65760;BME280;52496;51.082;5.066;2023-02-15T12:15:10;102431.38;;;14.11;65.92
65760;BME280;52496;51.082;5.066;2023-02-15T12:17:42;102430.19;;;14.13;66.38
65760;BME280;52496;51.082;5.066;2023-02-15T12:22:55;102423.28;;;14.27;66.06
65760;BME280;52496;51.082;5.066;2023-02-15T12:25:52;102419.56;;;14.36;65.75
65760;BME280;52496;51.082;5.066;2023-02-15T12:28:36;102421.41;;;14.44;64.72
65760;BME280;52496;51.082;5.066;2023-02-15T12:31:24;102419.06;;;14.33;63.99
65760;BME280;52496;51.082;5.066;2023-02-15T12:33:57;102421.78;;;14.25;66.33
65760;BME280;52496;51.082;5.066;2023-02-15T12:36:40;102416.41;;;14.25;65.38
65760;BME280;52496;51.082;5.066;2023-02-15T12:39:28;102410.16;;;14.24;64.86
65760;BME280;52496;51.082;5.066;2023-02-15T12:42:14;102402.28;;;14.22;65.03
65760;BME280;52496;51.082;5.066;2023-02-15T12:45:40;102399.25;;;14.17;65.21
65760;BME280;52496;51.082;5.066;2023-02-15T12:50:44;102384.78;;;14.18;67.50
65760;BME280;52496;51.082;5.066;2023-02-15T12:53:30;102387.16;;;14.21;67.30
65760;BME280;52496;51.082;5.066;2023-02-15T12:56:03;102380.88;;;14.29;67.78
65760;BME280;52496;51.082;5.066;2023-02-15T12:58:38;102378.00;;;14.39;67.17
65760;BME280;52496;51.082;5.066;2023-02-15T13:01:16;102379.16;;;14.44;65.68
65760;BME280;52496;51.082;5.066;2023-02-15T13:04:03;102377.50;;;14.43;64.45
65760;BME280;52496;51.082;5.066;2023-02-15T13:06:35;102375.66;;;14.52;64.36
65760;BME280;52496;51.082;5.066;2023-02-15T13:09:19;102375.94;;;14.65;65.14
65760;BME280;52496;51.082;5.066;2023-02-15T13:11:50;102375.88;;;14.82;63.40
65760;BME280;52496;51.082;5.066;2023-02-15T13:14:33;102382.59;;;14.86;61.93
65760;BME280;52496;51.082;5.066;2023-02-15T13:17:04;102381.22;;;14.90;63.77
65760;BME280;52496;51.082;5.066;2023-02-15T13:19:49;102380.50;;;15.04;64.44
65760;BME280;52496;51.082;5.066;2023-02-15T13:22:31;102374.72;;;15.16;63.90
65760;BME280;52496;51.082;5.066;2023-02-15T13:25:11;102373.44;;;15.26;62.37
65760;BME280;52496;51.082;5.066;2023-02-15T13:27:44;102375.75;;;15.37;62.55
65760;BME280;52496;51.082;5.066;2023-02-15T13:30:30;102374.91;;;15.37;59.64
65760;BME280;52496;51.082;5.066;2023-02-15T13:33:05;102357.75;;;15.30;60.42
65760;BME280;52496;51.082;5.066;2023-02-15T13:41:53;102361.84;;;15.26;61.64
65760;BME280;52496;51.082;5.066;2023-02-15T14:07:53;102359.53;;;15.14;61.97
65760;BME280;52496;51.082;5.066;2023-02-15T14:10:43;102367.81;;;15.13;61.01
65760;BME280;52496;51.082;5.066;2023-02-15T14:13:36;102361.09;;;15.09;60.82
65760;BME280;52496;51.082;5.066;2023-02-15T14:24:35;102362.97;;;15.00;61.33
65760;BME280;52496;51.082;5.066;2023-02-15T14:27:24;102362.72;;;14.87;61.98
65760;BME280;52496;51.082;5.066;2023-02-15T14:30:00;102367.16;;;14.80;62.89
65760;BME280;52496;51.082;5.066;2023-02-15T14:32:36;102360.94;;;14.71;62.50
65760;BME280;52496;51.082;5.066;2023-02-15T14:35:20;102363.84;;;14.61;63.42
65760;BME280;52496;51.082;5.066;2023-02-15T14:41:04;102368.91;;;14.48;63.85
65760;BME280;52496;51.082;5.066;2023-02-15T14:49:24;102372.34;;;14.17;62.89
65760;BME280;52496;51.082;5.066;2023-02-15T14:51:58;102371.50;;;14.09;64.74
65760;BME280;52496;51.082;5.066;2023-02-15T15:02:48;102362.97;;;13.81;64.11
65760;BME280;52496;51.082;5.066;2023-02-15T15:05:27;102364.66;;;13.73;64.45
65760;BME280;52496;51.082;5.066;2023-02-15T15:08:01;102361.13;;;13.65;65.24
65760;BME280;52496;51.082;5.066;2023-02-15T15:10:37;102361.44;;;13.62;64.98
65760;BME280;52496;51.082;5.066;2023-02-15T15:13:34;102358.41;;;13.57;65.95
65760;BME280;52496;51.082;5.066;2023-02-15T15:19:10;102361.59;;;13.44;65.97
65760;BME280;52496;51.082;5.066;2023-02-15T15:33:01;102347.41;;;13.17;69.22
65760;BME280;52496;51.082;5.066;2023-02-15T15:36:11;102342.69;;;13.11;69.93
65760;BME280;52496;51.082;5.066;2023-02-15T15:41:43;102353.78;;;13.00;70.46
65760;BME280;52496;51.082;5.066;2023-02-15T15:44:52;102345.69;;;12.92;70.14
65760;BME280;52496;51.082;5.066;2023-02-15T15:50:19;102352.69;;;12.76;70.31
65760;BME280;52496;51.082;5.066;2023-02-15T15:52:53;102341.91;;;12.68;71.03
65760;BME280;52496;51.082;5.066;2023-02-15T15:55:26;102347.91;;;12.62;71.89
65760;BME280;52496;51.082;5.066;2023-02-15T15:58:04;102352.56;;;12.52;72.03
65760;BME280;52496;51.082;5.066;2023-02-15T16:01:02;102352.53;;;12.44;72.05
65760;BME280;52496;51.082;5.066;2023-02-15T16:03:34;102359.00;;;12.33;72.99
65760;BME280;52496;51.082;5.066;2023-02-15T16:06:06;102358.13;;;12.24;73.39
65760;BME280;52496;51.082;5.066;2023-02-15T16:08:41;102347.66;;;12.13;74.40
65760;BME280;52496;51.082;5.066;2023-02-15T16:11:23;102358.47;;;12.03;75.22
65760;BME280;52496;51.082;5.066;2023-02-15T16:13:54;102346.47;;;11.89;75.55
65760;BME280;52496;51.082;5.066;2023-02-15T16:16:27;102351.75;;;11.81;76.25